Aviation Digital Data Service (ADDS)

Output produced by METARs form (1818 UTC 19 April 2019)
found at http://www.aviationweather.gov/metar/data/
 
METAR text: UAAA 191800Z 29002MPS 9999 SCT050CB OVC100 14/09 Q1013 R88/65D NOSIG
Conditions at: UAAA (ALMA-ATA , KZ) observed 1800 UTC 19 April 2019
Temperature: 14.0°C (57°F)
Dewpoint: 9.0°C (48°F) [RH = 72%]
Pressure (altimeter): 29.91 inches Hg (1013.0 mb)
Winds: from the WNW (290 degrees) at 5 MPH (4 knots; 2.1 m/s)
Visibility: 6 or more miles (10+ km)
Ceiling: 10000 feet AGL
Clouds: scattered clouds at 5000 feet AGL
overcast cloud deck at 10000 feet AGL
Weather: no significant weather observed at this time

METAR text: UAAA 191730Z 13003MPS 040V180 9999 SCT050CB OVC100 15/09 Q1013 R88/65D NOSIG
Conditions at: UAAA (ALMA-ATA , KZ) observed 1730 UTC 19 April 2019
Temperature: 15.0°C (59°F)
Dewpoint: 9.0°C (48°F) [RH = 67%]
Pressure (altimeter): 29.91 inches Hg (1013.0 mb)
Winds: from the SE (130 degrees) at 7 MPH (6 knots; 3.1 m/s)
Visibility: 6 or more miles (10+ km)
Ceiling: 10000 feet AGL
Clouds: scattered clouds at 5000 feet AGL
overcast cloud deck at 10000 feet AGL
Weather: no significant weather observed at this time

METAR text: UAAA 191700Z 14003MPS 9999 SCT050CB OVC100 15/08 Q1013 R88/65D NOSIG
Conditions at: UAAA (ALMA-ATA , KZ) observed 1700 UTC 19 April 2019
Temperature: 15.0°C (59°F)
Dewpoint: 8.0°C (46°F) [RH = 63%]
Pressure (altimeter): 29.91 inches Hg (1013.0 mb)
Winds: from the SE (140 degrees) at 7 MPH (6 knots; 3.1 m/s)
Visibility: 6 or more miles (10+ km)
Ceiling: 10000 feet AGL
Clouds: scattered clouds at 5000 feet AGL
overcast cloud deck at 10000 feet AGL
Weather: no significant weather observed at this time

METAR text: UAAA 191630Z 11004MPS 9999 BKN050CB OVC100 15/08 Q1012 R88/65D NOSIG
Conditions at: UAAA (ALMA-ATA , KZ) observed 1630 UTC 19 April 2019
Temperature: 15.0°C (59°F)
Dewpoint: 8.0°C (46°F) [RH = 63%]
Pressure (altimeter): 29.88 inches Hg (1012.0 mb)
Winds: from the ESE (110 degrees) at 9 MPH (8 knots; 4.1 m/s)
Visibility: 6 or more miles (10+ km)
Ceiling: 5000 feet AGL
Clouds: broken clouds at 5000 feet AGL
overcast cloud deck at 10000 feet AGL
Weather: no significant weather observed at this time

METAR text: UAAA 191600Z 10003MPS 9999 BKN050CB OVC100 15/08 Q1014 R88/65D NOSIG
Conditions at: UAAA (ALMA-ATA , KZ) observed 1600 UTC 19 April 2019
Temperature: 15.0°C (59°F)
Dewpoint: 8.0°C (46°F) [RH = 63%]
Pressure (altimeter): 29.94 inches Hg (1014.0 mb)
Winds: from the E (100 degrees) at 7 MPH (6 knots; 3.1 m/s)
Visibility: 6 or more miles (10+ km)
Ceiling: 5000 feet AGL
Clouds: broken clouds at 5000 feet AGL
overcast cloud deck at 10000 feet AGL
Weather: no significant weather observed at this time

METAR text: UAAA 191530Z 14002MPS 9999 BKN050CB OVC100 15/08 Q1014 R88/65D NOSIG
Conditions at: UAAA (ALMA-ATA , KZ) observed 1530 UTC 19 April 2019
Temperature: 15.0°C (59°F)
Dewpoint: 8.0°C (46°F) [RH = 63%]
Pressure (altimeter): 29.94 inches Hg (1014.0 mb)
Winds: from the SE (140 degrees) at 5 MPH (4 knots; 2.1 m/s)
Visibility: 6 or more miles (10+ km)
Ceiling: 5000 feet AGL
Clouds: broken clouds at 5000 feet AGL
overcast cloud deck at 10000 feet AGL
Weather: no significant weather observed at this time

METAR text: UAAA 191500Z 17004MPS 9999 BKN050CB OVC100 16/07 Q1015 R88/65D NOSIG
Conditions at: UAAA (ALMA-ATA , KZ) observed 1500 UTC 19 April 2019
Temperature: 16.0°C (61°F)
Dewpoint: 7.0°C (45°F) [RH = 55%]
Pressure (altimeter): 29.97 inches Hg (1015.0 mb)
Winds: from the S (170 degrees) at 9 MPH (8 knots; 4.1 m/s)
Visibility: 6 or more miles (10+ km)
Ceiling: 5000 feet AGL
Clouds: broken clouds at 5000 feet AGL
overcast cloud deck at 10000 feet AGL
Weather: no significant weather observed at this time

METAR text: UAAA 191430Z 16002MPS 9999 BKN050CB OVC100 15/08 Q1015 R88/65D NOSIG
Conditions at: UAAA (ALMA-ATA , KZ) observed 1430 UTC 19 April 2019
Temperature: 15.0°C (59°F)
Dewpoint: 8.0°C (46°F) [RH = 63%]
Pressure (altimeter): 29.97 inches Hg (1015.0 mb)
Winds: from the SSE (160 degrees) at 5 MPH (4 knots; 2.1 m/s)
Visibility: 6 or more miles (10+ km)
Ceiling: 5000 feet AGL
Clouds: broken clouds at 5000 feet AGL
overcast cloud deck at 10000 feet AGL
Weather: no significant weather observed at this time

METAR text: UAAA 191400Z 12002MPS 9999 BKN050CB OVC100 15/09 Q1014 R88/65D NOSIG
Conditions at: UAAA (ALMA-ATA , KZ) observed 1400 UTC 19 April 2019
Temperature: 15.0°C (59°F)
Dewpoint: 9.0°C (48°F) [RH = 67%]
Pressure (altimeter): 29.94 inches Hg (1014.0 mb)
Winds: from the ESE (120 degrees) at 5 MPH (4 knots; 2.1 m/s)
Visibility: 6 or more miles (10+ km)
Ceiling: 5000 feet AGL
Clouds: broken clouds at 5000 feet AGL
overcast cloud deck at 10000 feet AGL
Weather: no significant weather observed at this time

METAR text: UAAA 191330Z 09002MPS 9999 BKN050CB OVC100 16/08 Q1014 R88/65D NOSIG
Conditions at: UAAA (ALMA-ATA , KZ) observed 1330 UTC 19 April 2019
Temperature: 16.0°C (61°F)
Dewpoint: 8.0°C (46°F) [RH = 59%]
Pressure (altimeter): 29.94 inches Hg (1014.0 mb)
Winds: from the E (90 degrees) at 5 MPH (4 knots; 2.1 m/s)
Visibility: 6 or more miles (10+ km)
Ceiling: 5000 feet AGL
Clouds: broken clouds at 5000 feet AGL
overcast cloud deck at 10000 feet AGL
Weather: no significant weather observed at this time

METAR text: UAAA 191300Z 04002MPS 9999 BKN050CB OVC100 15/09 Q1014 R88/65D NOSIG
Conditions at: UAAA (ALMA-ATA , KZ) observed 1300 UTC 19 April 2019
Temperature: 15.0°C (59°F)
Dewpoint: 9.0°C (48°F) [RH = 67%]
Pressure (altimeter): 29.94 inches Hg (1014.0 mb)
Winds: from the NE (40 degrees) at 5 MPH (4 knots; 2.1 m/s)
Visibility: 6 or more miles (10+ km)
Ceiling: 5000 feet AGL
Clouds: broken clouds at 5000 feet AGL
overcast cloud deck at 10000 feet AGL
Weather: no significant weather observed at this time

METAR text: UAAA 191230Z 03004MPS 9999 BKN050CB OVC100 16/08 Q1014 R88/65D NOSIG
Conditions at: UAAA (ALMA-ATA , KZ) observed 1230 UTC 19 April 2019
Temperature: 16.0°C (61°F)
Dewpoint: 8.0°C (46°F) [RH = 59%]
Pressure (altimeter): 29.94 inches Hg (1014.0 mb)
Winds: from the NNE (30 degrees) at 9 MPH (8 knots; 4.1 m/s)
Visibility: 6 or more miles (10+ km)
Ceiling: 5000 feet AGL
Clouds: broken clouds at 5000 feet AGL
overcast cloud deck at 10000 feet AGL
Weather: no significant weather observed at this time

METAR text: UAAA 191200Z 31005MPS 280V340 9999 SCT050CB BKN100 17/08 Q1013 R88/65D NOSIG
Conditions at: UAAA (ALMA-ATA , KZ) observed 1200 UTC 19 April 2019
Temperature: 17.0°C (63°F)
Dewpoint: 8.0°C (46°F) [RH = 55%]
Pressure (altimeter): 29.91 inches Hg (1013.0 mb)
Winds: from the NW (310 degrees) at 12 MPH (10 knots; 5.1 m/s)
Visibility: 6 or more miles (10+ km)
Ceiling: 10000 feet AGL
Clouds: scattered clouds at 5000 feet AGL
broken clouds at 10000 feet AGL
Weather: no significant weather observed at this time

METAR text: UAAA 191130Z 30005MPS 9999 SCT050CB BKN100 17/08 Q1012 R88/65D NOSIG
Conditions at: UAAA (ALMA-ATA , KZ) observed 1130 UTC 19 April 2019
Temperature: 17.0°C (63°F)
Dewpoint: 8.0°C (46°F) [RH = 55%]
Pressure (altimeter): 29.88 inches Hg (1012.0 mb)
Winds: from the WNW (300 degrees) at 12 MPH (10 knots; 5.1 m/s)
Visibility: 6 or more miles (10+ km)
Ceiling: 10000 feet AGL
Clouds: scattered clouds at 5000 feet AGL
broken clouds at 10000 feet AGL
Weather: no significant weather observed at this time

METAR text: UAAA 191100Z 28006MPS 210V320 9999 SCT050CB BKN100 19/09 Q1012 R88/CLRD65 NOSIG
Conditions at: UAAA (ALMA-ATA , KZ) observed 1100 UTC 19 April 2019
Temperature: 19.0°C (66°F)
Dewpoint: 9.0°C (48°F) [RH = 52%]
Pressure (altimeter): 29.88 inches Hg (1012.0 mb)
Winds: from the W (280 degrees) at 14 MPH (12 knots; 6.2 m/s)
Visibility: 6 or more miles (10+ km)
Ceiling: 10000 feet AGL
Clouds: scattered clouds at 5000 feet AGL
broken clouds at 10000 feet AGL
Weather: no significant weather observed at this time

METAR text: UAAA 191030Z 24006MPS 9999 SCT050CB BKN100 20/12 Q1012 R88/65D NOSIG
Conditions at: UAAA (ALMA-ATA , KZ) observed 1030 UTC 19 April 2019
Temperature: 20.0°C (68°F)
Dewpoint: 12.0°C (54°F) [RH = 60%]
Pressure (altimeter): 29.88 inches Hg (1012.0 mb)
Winds: from the WSW (240 degrees) at 14 MPH (12 knots; 6.2 m/s)
Visibility: 6 or more miles (10+ km)
Ceiling: 10000 feet AGL
Clouds: scattered clouds at 5000 feet AGL
broken clouds at 10000 feet AGL
Weather: no significant weather observed at this time

METAR text: UAAA 191000Z 26006MPS 9999 SCT050CB BKN100 21/12 Q1011 R88/CLRD65 NOSIG
Conditions at: UAAA (ALMA-ATA , KZ) observed 1000 UTC 19 April 2019
Temperature: 21.0°C (70°F)
Dewpoint: 12.0°C (54°F) [RH = 56%]
Pressure (altimeter): 29.85 inches Hg (1011.0 mb)
Winds: from the W (260 degrees) at 14 MPH (12 knots; 6.2 m/s)
Visibility: 6 or more miles (10+ km)
Ceiling: 10000 feet AGL
Clouds: scattered clouds at 5000 feet AGL
broken clouds at 10000 feet AGL
Weather: no significant weather observed at this time

METAR text: UAAA 190930Z 26005MPS 9999 SCT050CB BKN100 21/11 Q1010 R88/65D NOSIG
Conditions at: UAAA (ALMA-ATA , KZ) observed 0930 UTC 19 April 2019
Temperature: 21.0°C (70°F)
Dewpoint: 11.0°C (52°F) [RH = 53%]
Pressure (altimeter): 29.82 inches Hg (1010.0 mb)
Winds: from the W (260 degrees) at 12 MPH (10 knots; 5.1 m/s)
Visibility: 6 or more miles (10+ km)
Ceiling: 10000 feet AGL
Clouds: scattered clouds at 5000 feet AGL
broken clouds at 10000 feet AGL
Weather: no significant weather observed at this time

METAR text: UAAA 190900Z 34003MPS 310V020 9999 SCT050CB BKN100 21/12 Q1009 R88/65D NOSIG
Conditions at: UAAA (ALMA-ATA , KZ) observed 0900 UTC 19 April 2019
Temperature: 21.0°C (70°F)
Dewpoint: 12.0°C (54°F) [RH = 56%]
Pressure (altimeter): 29.79 inches Hg (1009.0 mb)
Winds: from the NNW (340 degrees) at 7 MPH (6 knots; 3.1 m/s)
Visibility: 6 or more miles (10+ km)
Ceiling: 10000 feet AGL
Clouds: scattered clouds at 5000 feet AGL
broken clouds at 10000 feet AGL
Weather: no significant weather observed at this time

METAR text: UAAA 190830Z 01004MPS 350V050 9999 SCT050 BKN100 20/12 Q1008 R88/65D NOSIG
Conditions at: UAAA (ALMA-ATA , KZ) observed 0830 UTC 19 April 2019
Temperature: 20.0°C (68°F)
Dewpoint: 12.0°C (54°F) [RH = 60%]
Pressure (altimeter): 29.76 inches Hg (1008.0 mb)
Winds: from the N (10 degrees) at 9 MPH (8 knots; 4.1 m/s)
Visibility: 6 or more miles (10+ km)
Ceiling: 10000 feet AGL
Clouds: scattered clouds at 5000 feet AGL
broken clouds at 10000 feet AGL
Weather: no significant weather observed at this time

METAR text: UAAA 190800Z 05004MPS 020V080 9999 SCT100 BKN200 20/12 Q1008 R88/65D NOSIG
Conditions at: UAAA (ALMA-ATA , KZ) observed 0800 UTC 19 April 2019
Temperature: 20.0°C (68°F)
Dewpoint: 12.0°C (54°F) [RH = 60%]
Pressure (altimeter): 29.76 inches Hg (1008.0 mb)
Winds: from the NE (50 degrees) at 9 MPH (8 knots; 4.1 m/s)
Visibility: 6 or more miles (10+ km)
Ceiling: 20000 feet AGL
Clouds: scattered clouds at 10000 feet AGL
broken clouds at 20000 feet AGL
Weather: no significant weather observed at this time

METAR text: UAAA 190730Z 02004MPS 340V060 9999 SCT100 BKN200 19/12 Q1009 R88/65D NOSIG
Conditions at: UAAA (ALMA-ATA , KZ) observed 0730 UTC 19 April 2019
Temperature: 19.0°C (66°F)
Dewpoint: 12.0°C (54°F) [RH = 64%]
Pressure (altimeter): 29.79 inches Hg (1009.0 mb)
Winds: from the NNE (20 degrees) at 9 MPH (8 knots; 4.1 m/s)
Visibility: 6 or more miles (10+ km)
Ceiling: 20000 feet AGL
Clouds: scattered clouds at 10000 feet AGL
broken clouds at 20000 feet AGL
Weather: no significant weather observed at this time

METAR text: UAAA 190700Z 10003MPS 050V140 9999 SCT100 BKN200 20/13 Q1009 R88/65D NOSIG
Conditions at: UAAA (ALMA-ATA , KZ) observed 0700 UTC 19 April 2019
Temperature: 20.0°C (68°F)
Dewpoint: 13.0°C (55°F) [RH = 64%]
Pressure (altimeter): 29.79 inches Hg (1009.0 mb)
Winds: from the E (100 degrees) at 7 MPH (6 knots; 3.1 m/s)
Visibility: 6 or more miles (10+ km)
Ceiling: 20000 feet AGL
Clouds: scattered clouds at 10000 feet AGL
broken clouds at 20000 feet AGL
Weather: no significant weather observed at this time

METAR text: UAAA 190630Z VRB01MPS 9999 SCT100 BKN200 18/10 Q1011 R88/65D NOSIG
Conditions at: UAAA (ALMA-ATA , KZ) observed 0630 UTC 19 April 2019
Temperature: 18.0°C (64°F)
Dewpoint: 10.0°C (50°F) [RH = 59%]
Pressure (altimeter): 29.85 inches Hg (1011.0 mb)
Winds: variable direction winds at 2 MPH (2 knots; 1.0 m/s)
Visibility: 6 or more miles (10+ km)
Ceiling: 20000 feet AGL
Clouds: scattered clouds at 10000 feet AGL
broken clouds at 20000 feet AGL
Weather: no significant weather observed at this time

METAR text: UAAA 190600Z 02003MPS 270V060 9999 SCT100 BKN200 17/09 Q1011 R88/65D NOSIG
Conditions at: UAAA (ALMA-ATA , KZ) observed 0600 UTC 19 April 2019
Temperature: 17.0°C (63°F)
Dewpoint: 9.0°C (48°F) [RH = 59%]
Pressure (altimeter): 29.85 inches Hg (1011.0 mb)
Winds: from the NNE (20 degrees) at 7 MPH (6 knots; 3.1 m/s)
Visibility: 6 or more miles (10+ km)
Ceiling: 20000 feet AGL
Clouds: scattered clouds at 10000 feet AGL
broken clouds at 20000 feet AGL
Weather: no significant weather observed at this time

METAR text: UAAA 190530Z VRB01MPS 9999 SCT100 BKN200 16/08 Q1012 R88/65D NOSIG
Conditions at: UAAA (ALMA-ATA , KZ) observed 0530 UTC 19 April 2019
Temperature: 16.0°C (61°F)
Dewpoint: 8.0°C (46°F) [RH = 59%]
Pressure (altimeter): 29.88 inches Hg (1012.0 mb)
Winds: variable direction winds at 2 MPH (2 knots; 1.0 m/s)
Visibility: 6 or more miles (10+ km)
Ceiling: 20000 feet AGL
Clouds: scattered clouds at 10000 feet AGL
broken clouds at 20000 feet AGL
Weather: no significant weather observed at this time

METAR text: UAAA 190500Z 04002MPS 9999 SCT100 BKN200 15/07 Q1012 R88/65D NOSIG
Conditions at: UAAA (ALMA-ATA , KZ) observed 0500 UTC 19 April 2019
Temperature: 15.0°C (59°F)
Dewpoint: 7.0°C (45°F) [RH = 59%]
Pressure (altimeter): 29.88 inches Hg (1012.0 mb)
Winds: from the NE (40 degrees) at 5 MPH (4 knots; 2.1 m/s)
Visibility: 6 or more miles (10+ km)
Ceiling: 20000 feet AGL
Clouds: scattered clouds at 10000 feet AGL
broken clouds at 20000 feet AGL
Weather: no significant weather observed at this time

METAR text: UAAA 190430Z 32002MPS 240V020 9999 SCT100 BKN200 14/08 Q1013 R88/65D NOSIG
Conditions at: UAAA (ALMA-ATA , KZ) observed 0430 UTC 19 April 2019
Temperature: 14.0°C (57°F)
Dewpoint: 8.0°C (46°F) [RH = 67%]
Pressure (altimeter): 29.91 inches Hg (1013.0 mb)
Winds: from the NW (320 degrees) at 5 MPH (4 knots; 2.1 m/s)
Visibility: 6 or more miles (10+ km)
Ceiling: 20000 feet AGL
Clouds: scattered clouds at 10000 feet AGL
broken clouds at 20000 feet AGL
Weather: no significant weather observed at this time

METAR text: UAAA 190400Z VRB01MPS 9999 SCT100 BKN200 13/07 Q1014 R88/65D NOSIG
Conditions at: UAAA (ALMA-ATA , KZ) observed 0400 UTC 19 April 2019
Temperature: 13.0°C (55°F)
Dewpoint: 7.0°C (45°F) [RH = 67%]
Pressure (altimeter): 29.94 inches Hg (1014.0 mb)
Winds: variable direction winds at 2 MPH (2 knots; 1.0 m/s)
Visibility: 6 or more miles (10+ km)
Ceiling: 20000 feet AGL
Clouds: scattered clouds at 10000 feet AGL
broken clouds at 20000 feet AGL
Weather: no significant weather observed at this time

METAR text: UAAA 190330Z 32003MPS 260V360 9999 SCT100 BKN200 12/07 Q1014 R88/65D NOSIG
Conditions at: UAAA (ALMA-ATA , KZ) observed 0330 UTC 19 April 2019
Temperature: 12.0°C (54°F)
Dewpoint: 7.0°C (45°F) [RH = 71%]
Pressure (altimeter): 29.94 inches Hg (1014.0 mb)
Winds: from the NW (320 degrees) at 7 MPH (6 knots; 3.1 m/s)
Visibility: 6 or more miles (10+ km)
Ceiling: 20000 feet AGL
Clouds: scattered clouds at 10000 feet AGL
broken clouds at 20000 feet AGL
Weather: no significant weather observed at this time

METAR text: UAAA 190300Z 32002MPS 290V350 9999 SCT100 BKN200 11/06 Q1014 R88/65D NOSIG
Conditions at: UAAA (ALMA-ATA , KZ) observed 0300 UTC 19 April 2019
Temperature: 11.0°C (52°F)
Dewpoint: 6.0°C (43°F) [RH = 71%]
Pressure (altimeter): 29.94 inches Hg (1014.0 mb)
Winds: from the NW (320 degrees) at 5 MPH (4 knots; 2.1 m/s)
Visibility: 6 or more miles (10+ km)
Ceiling: 20000 feet AGL
Clouds: scattered clouds at 10000 feet AGL
broken clouds at 20000 feet AGL
Weather: no significant weather observed at this time

METAR text: UAAA 190230Z 30003MPS 270V330 9999 SCT100 BKN200 11/06 Q1014 R88/65D NOSIG
Conditions at: UAAA (ALMA-ATA , KZ) observed 0230 UTC 19 April 2019
Temperature: 11.0°C (52°F)
Dewpoint: 6.0°C (43°F) [RH = 71%]
Pressure (altimeter): 29.94 inches Hg (1014.0 mb)
Winds: from the WNW (300 degrees) at 7 MPH (6 knots; 3.1 m/s)
Visibility: 6 or more miles (10+ km)
Ceiling: 20000 feet AGL
Clouds: scattered clouds at 10000 feet AGL
broken clouds at 20000 feet AGL
Weather: no significant weather observed at this time

METAR text: UAAA 190200Z 16002MPS 120V250 9999 SCT100 BKN200 11/05 Q1014 R88/65D NOSIG
Conditions at: UAAA (ALMA-ATA , KZ) observed 0200 UTC 19 April 2019
Temperature: 11.0°C (52°F)
Dewpoint: 5.0°C (41°F) [RH = 66%]
Pressure (altimeter): 29.94 inches Hg (1014.0 mb)
Winds: from the SSE (160 degrees) at 5 MPH (4 knots; 2.1 m/s)
Visibility: 6 or more miles (10+ km)
Ceiling: 20000 feet AGL
Clouds: scattered clouds at 10000 feet AGL
broken clouds at 20000 feet AGL
Weather: no significant weather observed at this time

METAR text: UAAA 190130Z 11002MPS 070V140 9999 SCT100 BKN200 09/05 Q1014 R88/65D NOSIG
Conditions at: UAAA (ALMA-ATA , KZ) observed 0130 UTC 19 April 2019
Temperature: 9.0°C (48°F)
Dewpoint: 5.0°C (41°F) [RH = 76%]
Pressure (altimeter): 29.94 inches Hg (1014.0 mb)
Winds: from the ESE (110 degrees) at 5 MPH (4 knots; 2.1 m/s)
Visibility: 6 or more miles (10+ km)
Ceiling: 20000 feet AGL
Clouds: scattered clouds at 10000 feet AGL
broken clouds at 20000 feet AGL
Weather: no significant weather observed at this time

METAR text: UAAA 190100Z 13001MPS 9999 SCT100 BKN200 08/05 Q1014 R88/65D NOSIG
Conditions at: UAAA (ALMA-ATA , KZ) observed 0100 UTC 19 April 2019
Temperature: 8.0°C (46°F)
Dewpoint: 5.0°C (41°F) [RH = 81%]
Pressure (altimeter): 29.94 inches Hg (1014.0 mb)
Winds: from the SE (130 degrees) at 2 MPH (2 knots; 1.0 m/s)
Visibility: 6 or more miles (10+ km)
Ceiling: 20000 feet AGL
Clouds: scattered clouds at 10000 feet AGL
broken clouds at 20000 feet AGL
Weather: no significant weather observed at this time

METAR text: UAAA 190030Z 30002MPS 210V330 9999 BKN100 08/05 Q1014 R88/65D NOSIG
Conditions at: UAAA (ALMA-ATA , KZ) observed 0030 UTC 19 April 2019
Temperature: 8.0°C (46°F)
Dewpoint: 5.0°C (41°F) [RH = 81%]
Pressure (altimeter): 29.94 inches Hg (1014.0 mb)
Winds: from the WNW (300 degrees) at 5 MPH (4 knots; 2.1 m/s)
Visibility: 6 or more miles (10+ km)
Ceiling: 10000 feet AGL
Clouds: broken clouds at 10000 feet AGL
Weather: no significant weather observed at this time

METAR text: UAAA 190000Z 33004MPS 9999 OVC100 08/06 Q1013 R88/65D NOSIG
Conditions at: UAAA (ALMA-ATA , KZ) observed 0000 UTC 19 April 2019
Temperature: 8.0°C (46°F)
Dewpoint: 6.0°C (43°F) [RH = 87%]
Pressure (altimeter): 29.91 inches Hg (1013.0 mb)
Winds: from the NNW (330 degrees) at 9 MPH (8 knots; 4.1 m/s)
Visibility: 6 or more miles (10+ km)
Ceiling: 10000 feet AGL
Clouds: overcast cloud deck at 10000 feet AGL
Weather: no significant weather observed at this time

METAR text: UAAA 182330Z 16002MPS 9999 BKN100 08/07 Q1013 R88/65D NOSIG
Conditions at: UAAA (ALMA-ATA , KZ) observed 2330 UTC 18 April 2019
Temperature: 8.0°C (46°F)
Dewpoint: 7.0°C (45°F) [RH = 93%]
Pressure (altimeter): 29.91 inches Hg (1013.0 mb)
Winds: from the SSE (160 degrees) at 5 MPH (4 knots; 2.1 m/s)
Visibility: 6 or more miles (10+ km)
Ceiling: 10000 feet AGL
Clouds: broken clouds at 10000 feet AGL
Weather: no significant weather observed at this time

METAR text: UAAA 182300Z 19002MPS 9999 BKN100 09/06 Q1013 R88/65D NOSIG
Conditions at: UAAA (ALMA-ATA , KZ) observed 2300 UTC 18 April 2019
Temperature: 9.0°C (48°F)
Dewpoint: 6.0°C (43°F) [RH = 81%]
Pressure (altimeter): 29.91 inches Hg (1013.0 mb)
Winds: from the S (190 degrees) at 5 MPH (4 knots; 2.1 m/s)
Visibility: 6 or more miles (10+ km)
Ceiling: 10000 feet AGL
Clouds: broken clouds at 10000 feet AGL
Weather: no significant weather observed at this time

METAR text: UAAA 182230Z 17002MPS 9999 FEW100 BKN200 08/06 Q1013 R88/65D NOSIG
Conditions at: UAAA (ALMA-ATA , KZ) observed 2230 UTC 18 April 2019
Temperature: 8.0°C (46°F)
Dewpoint: 6.0°C (43°F) [RH = 87%]
Pressure (altimeter): 29.91 inches Hg (1013.0 mb)
Winds: from the S (170 degrees) at 5 MPH (4 knots; 2.1 m/s)
Visibility: 6 or more miles (10+ km)
Ceiling: 20000 feet AGL
Clouds: few clouds at 10000 feet AGL
broken clouds at 20000 feet AGL
Weather: no significant weather observed at this time

METAR text: UAAA 182200Z 19002MPS 160V230 9999 FEW100 BKN200 09/06 Q1013 R88/65D NOSIG
Conditions at: UAAA (ALMA-ATA , KZ) observed 2200 UTC 18 April 2019
Temperature: 9.0°C (48°F)
Dewpoint: 6.0°C (43°F) [RH = 81%]
Pressure (altimeter): 29.91 inches Hg (1013.0 mb)
Winds: from the S (190 degrees) at 5 MPH (4 knots; 2.1 m/s)
Visibility: 6 or more miles (10+ km)
Ceiling: 20000 feet AGL
Clouds: few clouds at 10000 feet AGL
broken clouds at 20000 feet AGL
Weather: no significant weather observed at this time

METAR text: UAAA 182130Z 21001MPS 9999 FEW100 BKN200 09/06 Q1014 R88/65D NOSIG
Conditions at: UAAA (ALMA-ATA , KZ) observed 2130 UTC 18 April 2019
Temperature: 9.0°C (48°F)
Dewpoint: 6.0°C (43°F) [RH = 81%]
Pressure (altimeter): 29.94 inches Hg (1014.0 mb)
Winds: from the SSW (210 degrees) at 2 MPH (2 knots; 1.0 m/s)
Visibility: 6 or more miles (10+ km)
Ceiling: 20000 feet AGL
Clouds: few clouds at 10000 feet AGL
broken clouds at 20000 feet AGL
Weather: no significant weather observed at this time

METAR text: UAAA 182100Z 19002MPS 9999 FEW100 BKN200 10/06 Q1014 R88/65D NOSIG
Conditions at: UAAA (ALMA-ATA , KZ) observed 2100 UTC 18 April 2019
Temperature: 10.0°C (50°F)
Dewpoint: 6.0°C (43°F) [RH = 76%]
Pressure (altimeter): 29.94 inches Hg (1014.0 mb)
Winds: from the S (190 degrees) at 5 MPH (4 knots; 2.1 m/s)
Visibility: 6 or more miles (10+ km)
Ceiling: 20000 feet AGL
Clouds: few clouds at 10000 feet AGL
broken clouds at 20000 feet AGL
Weather: no significant weather observed at this time

METAR text: UAAA 182030Z 18002MPS 9999 FEW100 BKN200 10/06 Q1015 R88/65D NOSIG
Conditions at: UAAA (ALMA-ATA , KZ) observed 2030 UTC 18 April 2019
Temperature: 10.0°C (50°F)
Dewpoint: 6.0°C (43°F) [RH = 76%]
Pressure (altimeter): 29.97 inches Hg (1015.0 mb)
Winds: from the S (180 degrees) at 5 MPH (4 knots; 2.1 m/s)
Visibility: 6 or more miles (10+ km)
Ceiling: 20000 feet AGL
Clouds: few clouds at 10000 feet AGL
broken clouds at 20000 feet AGL
Weather: no significant weather observed at this time

METAR text: UAAA 182000Z 28003MPS 9999 FEW100 SCT200 09/07 Q1015 R88/65D NOSIG
Conditions at: UAAA (ALMA-ATA , KZ) observed 2000 UTC 18 April 2019
Temperature: 9.0°C (48°F)
Dewpoint: 7.0°C (45°F) [RH = 87%]
Pressure (altimeter): 29.97 inches Hg (1015.0 mb)
Winds: from the W (280 degrees) at 7 MPH (6 knots; 3.1 m/s)
Visibility: 6 or more miles (10+ km)
Ceiling: at least 12,000 feet AGL
Clouds: few clouds at 10000 feet AGL
scattered clouds at 20000 feet AGL
Weather: no significant weather observed at this time

METAR text: UAAA 181930Z 21003MPS 9999 FEW100 SCT200 11/07 Q1015 R88/65D NOSIG
Conditions at: UAAA (ALMA-ATA , KZ) observed 1930 UTC 18 April 2019
Temperature: 11.0°C (52°F)
Dewpoint: 7.0°C (45°F) [RH = 76%]
Pressure (altimeter): 29.97 inches Hg (1015.0 mb)
Winds: from the SSW (210 degrees) at 7 MPH (6 knots; 3.1 m/s)
Visibility: 6 or more miles (10+ km)
Ceiling: at least 12,000 feet AGL
Clouds: few clouds at 10000 feet AGL
scattered clouds at 20000 feet AGL
Weather: no significant weather observed at this time

METAR text: UAAA 181900Z 27003MPS 9999 FEW100 SCT200 10/06 Q1015 R88/65D NOSIG
Conditions at: UAAA (ALMA-ATA , KZ) observed 1900 UTC 18 April 2019
Temperature: 10.0°C (50°F)
Dewpoint: 6.0°C (43°F) [RH = 76%]
Pressure (altimeter): 29.97 inches Hg (1015.0 mb)
Winds: from the W (270 degrees) at 7 MPH (6 knots; 3.1 m/s)
Visibility: 6 or more miles (10+ km)
Ceiling: at least 12,000 feet AGL
Clouds: few clouds at 10000 feet AGL
scattered clouds at 20000 feet AGL
Weather: no significant weather observed at this time

METAR text: UAAA 181830Z 25002MPS 180V300 9999 FEW100 SCT200 10/07 Q1014 R88/65D NOSIG
Conditions at: UAAA (ALMA-ATA , KZ) observed 1830 UTC 18 April 2019
Temperature: 10.0°C (50°F)
Dewpoint: 7.0°C (45°F) [RH = 82%]
Pressure (altimeter): 29.94 inches Hg (1014.0 mb)
Winds: from the WSW (250 degrees) at 5 MPH (4 knots; 2.1 m/s)
Visibility: 6 or more miles (10+ km)
Ceiling: at least 12,000 feet AGL
Clouds: few clouds at 10000 feet AGL
scattered clouds at 20000 feet AGL
Weather: no significant weather observed at this time

METAR text: UAAA 181800Z 21002MPS 9999 FEW100 BKN200 11/07 Q1014 R88/65D NOSIG
Conditions at: UAAA (ALMA-ATA , KZ) observed 1800 UTC 18 April 2019
Temperature: 11.0°C (52°F)
Dewpoint: 7.0°C (45°F) [RH = 76%]
Pressure (altimeter): 29.94 inches Hg (1014.0 mb)
Winds: from the SSW (210 degrees) at 5 MPH (4 knots; 2.1 m/s)
Visibility: 6 or more miles (10+ km)
Ceiling: 20000 feet AGL
Clouds: few clouds at 10000 feet AGL
broken clouds at 20000 feet AGL
Weather: no significant weather observed at this time

METAR text: UAAA 181730Z 33002MPS 9999 FEW100 BKN200 11/07 Q1015 R88/65D NOSIG
Conditions at: UAAA (ALMA-ATA , KZ) observed 1730 UTC 18 April 2019
Temperature: 11.0°C (52°F)
Dewpoint: 7.0°C (45°F) [RH = 76%]
Pressure (altimeter): 29.97 inches Hg (1015.0 mb)
Winds: from the NNW (330 degrees) at 5 MPH (4 knots; 2.1 m/s)
Visibility: 6 or more miles (10+ km)
Ceiling: 20000 feet AGL
Clouds: few clouds at 10000 feet AGL
broken clouds at 20000 feet AGL
Weather: no significant weather observed at this time

METAR text: UAAA 181700Z 36002MPS 9999 FEW100 SCT200 12/07 Q1015 R88/65D NOSIG
Conditions at: UAAA (ALMA-ATA , KZ) observed 1700 UTC 18 April 2019
Temperature: 12.0°C (54°F)
Dewpoint: 7.0°C (45°F) [RH = 71%]
Pressure (altimeter): 29.97 inches Hg (1015.0 mb)
Winds: from the N (360 degrees) at 5 MPH (4 knots; 2.1 m/s)
Visibility: 6 or more miles (10+ km)
Ceiling: at least 12,000 feet AGL
Clouds: few clouds at 10000 feet AGL
scattered clouds at 20000 feet AGL
Weather: no significant weather observed at this time

METAR text: UAAA 181630Z VRB01MPS 9999 FEW100 SCT200 13/07 Q1015 R88/65D NOSIG
Conditions at: UAAA (ALMA-ATA , KZ) observed 1630 UTC 18 April 2019
Temperature: 13.0°C (55°F)
Dewpoint: 7.0°C (45°F) [RH = 67%]
Pressure (altimeter): 29.97 inches Hg (1015.0 mb)
Winds: variable direction winds at 2 MPH (2 knots; 1.0 m/s)
Visibility: 6 or more miles (10+ km)
Ceiling: at least 12,000 feet AGL
Clouds: few clouds at 10000 feet AGL
scattered clouds at 20000 feet AGL
Weather: no significant weather observed at this time

METAR text: UAAA 181600Z 03003MPS 9999 FEW100 SCT200 13/07 Q1016 R88/65D NOSIG
Conditions at: UAAA (ALMA-ATA , KZ) observed 1600 UTC 18 April 2019
Temperature: 13.0°C (55°F)
Dewpoint: 7.0°C (45°F) [RH = 67%]
Pressure (altimeter): 30.00 inches Hg (1016.0 mb)
Winds: from the NNE (30 degrees) at 7 MPH (6 knots; 3.1 m/s)
Visibility: 6 or more miles (10+ km)
Ceiling: at least 12,000 feet AGL
Clouds: few clouds at 10000 feet AGL
scattered clouds at 20000 feet AGL
Weather: no significant weather observed at this time

METAR text: UAAA 181530Z 02004MPS 9999 FEW100 SCT200 14/07 Q1016 R88/65D NOSIG
Conditions at: UAAA (ALMA-ATA , KZ) observed 1530 UTC 18 April 2019
Temperature: 14.0°C (57°F)
Dewpoint: 7.0°C (45°F) [RH = 63%]
Pressure (altimeter): 30.00 inches Hg (1016.0 mb)
Winds: from the NNE (20 degrees) at 9 MPH (8 knots; 4.1 m/s)
Visibility: 6 or more miles (10+ km)
Ceiling: at least 12,000 feet AGL
Clouds: few clouds at 10000 feet AGL
scattered clouds at 20000 feet AGL
Weather: no significant weather observed at this time

METAR text: UAAA 181500Z 05002MPS 350V090 9999 FEW100 BKN200 17/09 Q1016 R88/65D NOSIG
Conditions at: UAAA (ALMA-ATA , KZ) observed 1500 UTC 18 April 2019
Temperature: 17.0°C (63°F)
Dewpoint: 9.0°C (48°F) [RH = 59%]
Pressure (altimeter): 30.00 inches Hg (1016.0 mb)
Winds: from the NE (50 degrees) at 5 MPH (4 knots; 2.1 m/s)
Visibility: 6 or more miles (10+ km)
Ceiling: 20000 feet AGL
Clouds: few clouds at 10000 feet AGL
broken clouds at 20000 feet AGL
Weather: no significant weather observed at this time

METAR text: UAAA 181430Z 08002MPS 9999 FEW100 BKN200 17/09 Q1016 R88/65D NOSIG
Conditions at: UAAA (ALMA-ATA , KZ) observed 1430 UTC 18 April 2019
Temperature: 17.0°C (63°F)
Dewpoint: 9.0°C (48°F) [RH = 59%]
Pressure (altimeter): 30.00 inches Hg (1016.0 mb)
Winds: from the E (80 degrees) at 5 MPH (4 knots; 2.1 m/s)
Visibility: 6 or more miles (10+ km)
Ceiling: 20000 feet AGL
Clouds: few clouds at 10000 feet AGL
broken clouds at 20000 feet AGL
Weather: no significant weather observed at this time

METAR text: UAAA 181400Z 10002MPS 9999 BKN050CB OVC100 18/09 Q1015 R88/65D NOSIG
Conditions at: UAAA (ALMA-ATA , KZ) observed 1400 UTC 18 April 2019
Temperature: 18.0°C (64°F)
Dewpoint: 9.0°C (48°F) [RH = 56%]
Pressure (altimeter): 29.97 inches Hg (1015.0 mb)
Winds: from the E (100 degrees) at 5 MPH (4 knots; 2.1 m/s)
Visibility: 6 or more miles (10+ km)
Ceiling: 5000 feet AGL
Clouds: broken clouds at 5000 feet AGL
overcast cloud deck at 10000 feet AGL
Weather: no significant weather observed at this time

METAR text: UAAA 181330Z 06002MPS 040V100 9999 BKN050CB OVC100 19/09 Q1016 R88/65D NOSIG
Conditions at: UAAA (ALMA-ATA , KZ) observed 1330 UTC 18 April 2019
Temperature: 19.0°C (66°F)
Dewpoint: 9.0°C (48°F) [RH = 52%]
Pressure (altimeter): 30.00 inches Hg (1016.0 mb)
Winds: from the ENE (60 degrees) at 5 MPH (4 knots; 2.1 m/s)
Visibility: 6 or more miles (10+ km)
Ceiling: 5000 feet AGL
Clouds: broken clouds at 5000 feet AGL
overcast cloud deck at 10000 feet AGL
Weather: no significant weather observed at this time

METAR text: UAAA 181300Z 04002MPS 9999 BKN050CB OVC100 19/09 Q1016 R88/65D NOSIG
Conditions at: UAAA (ALMA-ATA , KZ) observed 1300 UTC 18 April 2019
Temperature: 19.0°C (66°F)
Dewpoint: 9.0°C (48°F) [RH = 52%]
Pressure (altimeter): 30.00 inches Hg (1016.0 mb)
Winds: from the NE (40 degrees) at 5 MPH (4 knots; 2.1 m/s)
Visibility: 6 or more miles (10+ km)
Ceiling: 5000 feet AGL
Clouds: broken clouds at 5000 feet AGL
overcast cloud deck at 10000 feet AGL
Weather: no significant weather observed at this time

METAR text: UAAA 181230Z 05003MPS 9999 BKN050CB OVC100 19/10 Q1015 R88/65D NOSIG
Conditions at: UAAA (ALMA-ATA , KZ) observed 1230 UTC 18 April 2019
Temperature: 19.0°C (66°F)
Dewpoint: 10.0°C (50°F) [RH = 56%]
Pressure (altimeter): 29.97 inches Hg (1015.0 mb)
Winds: from the NE (50 degrees) at 7 MPH (6 knots; 3.1 m/s)
Visibility: 6 or more miles (10+ km)
Ceiling: 5000 feet AGL
Clouds: broken clouds at 5000 feet AGL
overcast cloud deck at 10000 feet AGL
Weather: no significant weather observed at this time

METAR text: UAAA 181200Z 03002MPS 360V080 9999 BKN050CB OVC100 20/09 Q1015 R88/65D NOSIG
Conditions at: UAAA (ALMA-ATA , KZ) observed 1200 UTC 18 April 2019
Temperature: 20.0°C (68°F)
Dewpoint: 9.0°C (48°F) [RH = 49%]
Pressure (altimeter): 29.97 inches Hg (1015.0 mb)
Winds: from the NNE (30 degrees) at 5 MPH (4 knots; 2.1 m/s)
Visibility: 6 or more miles (10+ km)
Ceiling: 5000 feet AGL
Clouds: broken clouds at 5000 feet AGL
overcast cloud deck at 10000 feet AGL
Weather: no significant weather observed at this time

METAR text: UAAA 181130Z 05002MPS 020V080 9999 SCT050CB BKN100 21/08 Q1015 R88/65D NOSIG
Conditions at: UAAA (ALMA-ATA , KZ) observed 1130 UTC 18 April 2019
Temperature: 21.0°C (70°F)
Dewpoint: 8.0°C (46°F) [RH = 43%]
Pressure (altimeter): 29.97 inches Hg (1015.0 mb)
Winds: from the NE (50 degrees) at 5 MPH (4 knots; 2.1 m/s)
Visibility: 6 or more miles (10+ km)
Ceiling: 10000 feet AGL
Clouds: scattered clouds at 5000 feet AGL
broken clouds at 10000 feet AGL
Weather: no significant weather observed at this time

METAR text: UAAA 181100Z 36004MPS 9999 SCT050CB BKN100 21/09 Q1015 R88/65D NOSIG
Conditions at: UAAA (ALMA-ATA , KZ) observed 1100 UTC 18 April 2019
Temperature: 21.0°C (70°F)
Dewpoint: 9.0°C (48°F) [RH = 46%]
Pressure (altimeter): 29.97 inches Hg (1015.0 mb)
Winds: from the N (360 degrees) at 9 MPH (8 knots; 4.1 m/s)
Visibility: 6 or more miles (10+ km)
Ceiling: 10000 feet AGL
Clouds: scattered clouds at 5000 feet AGL
broken clouds at 10000 feet AGL
Weather: no significant weather observed at this time

METAR text: UAAA 181030Z 01003MPS 320V070 9999 SCT050 BKN100 21/06 Q1014 R88/65D NOSIG
Conditions at: UAAA (ALMA-ATA , KZ) observed 1030 UTC 18 April 2019
Temperature: 21.0°C (70°F)
Dewpoint: 6.0°C (43°F) [RH = 38%]
Pressure (altimeter): 29.94 inches Hg (1014.0 mb)
Winds: from the N (10 degrees) at 7 MPH (6 knots; 3.1 m/s)
Visibility: 6 or more miles (10+ km)
Ceiling: 10000 feet AGL
Clouds: scattered clouds at 5000 feet AGL
broken clouds at 10000 feet AGL
Weather: no significant weather observed at this time

METAR text: UAAA 181000Z 03003MPS 360V080 9999 SCT050 BKN200 22/08 Q1014 R88/65D NOSIG
Conditions at: UAAA (ALMA-ATA , KZ) observed 1000 UTC 18 April 2019
Temperature: 22.0°C (72°F)
Dewpoint: 8.0°C (46°F) [RH = 41%]
Pressure (altimeter): 29.94 inches Hg (1014.0 mb)
Winds: from the NNE (30 degrees) at 7 MPH (6 knots; 3.1 m/s)
Visibility: 6 or more miles (10+ km)
Ceiling: 20000 feet AGL
Clouds: scattered clouds at 5000 feet AGL
broken clouds at 20000 feet AGL
Weather: no significant weather observed at this time

METAR text: UAAA 180930Z 01002MPS 9999 SCT050 BKN200 22/09 Q1014 R05R/CLRD65 NOSIG
Conditions at: UAAA (ALMA-ATA , KZ) observed 0930 UTC 18 April 2019
Temperature: 22.0°C (72°F)
Dewpoint: 9.0°C (48°F) [RH = 43%]
Pressure (altimeter): 29.94 inches Hg (1014.0 mb)
Winds: from the N (10 degrees) at 5 MPH (4 knots; 2.1 m/s)
Visibility: 6 or more miles (10+ km)
Ceiling: 20000 feet AGL
Clouds: scattered clouds at 5000 feet AGL
broken clouds at 20000 feet AGL
Weather: no significant weather observed at this time

METAR text: UAAA 180900Z 34003MPS 280V040 9999 SCT050 BKN200 22/09 Q1014 R05R/CLRD65 NOSIG
Conditions at: UAAA (ALMA-ATA , KZ) observed 0900 UTC 18 April 2019
Temperature: 22.0°C (72°F)
Dewpoint: 9.0°C (48°F) [RH = 43%]
Pressure (altimeter): 29.94 inches Hg (1014.0 mb)
Winds: from the NNW (340 degrees) at 7 MPH (6 knots; 3.1 m/s)
Visibility: 6 or more miles (10+ km)
Ceiling: 20000 feet AGL
Clouds: scattered clouds at 5000 feet AGL
broken clouds at 20000 feet AGL
Weather: no significant weather observed at this time

METAR text: UAAA 180830Z 33003MPS 270V360 9999 SCT050 BKN200 21/06 Q1015 R88/65D NOSIG
Conditions at: UAAA (ALMA-ATA , KZ) observed 0830 UTC 18 April 2019
Temperature: 21.0°C (70°F)
Dewpoint: 6.0°C (43°F) [RH = 38%]
Pressure (altimeter): 29.97 inches Hg (1015.0 mb)
Winds: from the NNW (330 degrees) at 7 MPH (6 knots; 3.1 m/s)
Visibility: 6 or more miles (10+ km)
Ceiling: 20000 feet AGL
Clouds: scattered clouds at 5000 feet AGL
broken clouds at 20000 feet AGL
Weather: no significant weather observed at this time

METAR text: UAAA 180800Z 32003MPS 260V030 9999 SCT050 BKN200 21/09 Q1015 R88/65D NOSIG
Conditions at: UAAA (ALMA-ATA , KZ) observed 0800 UTC 18 April 2019
Temperature: 21.0°C (70°F)
Dewpoint: 9.0°C (48°F) [RH = 46%]
Pressure (altimeter): 29.97 inches Hg (1015.0 mb)
Winds: from the NW (320 degrees) at 7 MPH (6 knots; 3.1 m/s)
Visibility: 6 or more miles (10+ km)
Ceiling: 20000 feet AGL
Clouds: scattered clouds at 5000 feet AGL
broken clouds at 20000 feet AGL
Weather: no significant weather observed at this time

METAR text: UAAA 180730Z 33004MPS 260V030 9999 FEW050 SCT200 21/08 Q1015 R88/65D NOSIG
Conditions at: UAAA (ALMA-ATA , KZ) observed 0730 UTC 18 April 2019
Temperature: 21.0°C (70°F)
Dewpoint: 8.0°C (46°F) [RH = 43%]
Pressure (altimeter): 29.97 inches Hg (1015.0 mb)
Winds: from the NNW (330 degrees) at 9 MPH (8 knots; 4.1 m/s)
Visibility: 6 or more miles (10+ km)
Ceiling: at least 12,000 feet AGL
Clouds: few clouds at 5000 feet AGL
scattered clouds at 20000 feet AGL
Weather: no significant weather observed at this time

METAR text: UAAA 180700Z 33003MPS 9999 FEW050 SCT200 20/08 Q1015 R88/65D NOSIG
Conditions at: UAAA (ALMA-ATA , KZ) observed 0700 UTC 18 April 2019
Temperature: 20.0°C (68°F)
Dewpoint: 8.0°C (46°F) [RH = 46%]
Pressure (altimeter): 29.97 inches Hg (1015.0 mb)
Winds: from the NNW (330 degrees) at 7 MPH (6 knots; 3.1 m/s)
Visibility: 6 or more miles (10+ km)
Ceiling: at least 12,000 feet AGL
Clouds: few clouds at 5000 feet AGL
scattered clouds at 20000 feet AGL
Weather: no significant weather observed at this time

METAR text: UAAA 180630Z 29003MPS 230V360 9999 FEW050 SCT200 19/08 Q1015 R88/65D NOSIG
Conditions at: UAAA (ALMA-ATA , KZ) observed 0630 UTC 18 April 2019
Temperature: 19.0°C (66°F)
Dewpoint: 8.0°C (46°F) [RH = 49%]
Pressure (altimeter): 29.97 inches Hg (1015.0 mb)
Winds: from the WNW (290 degrees) at 7 MPH (6 knots; 3.1 m/s)
Visibility: 6 or more miles (10+ km)
Ceiling: at least 12,000 feet AGL
Clouds: few clouds at 5000 feet AGL
scattered clouds at 20000 feet AGL
Weather: no significant weather observed at this time

Forecast for: UAAA (ALMA-ATA , KZ)
Text: TAF UAAA 191700Z 1918/2018 28004MPS 9999 BKN030CB BKN100 TX17/2008Z TN10/2001Z
Forecast period: 1800 UTC 19 April 2019 to 0600 UTC 20 April 2019
Forecast type: FROM: standard forecast or significant change
Winds: from the W (280 degrees) at 9 MPH (8 knots; 4.1 m/s)
Visibility: 6 or more miles 10+ km)
Ceiling: 3000 feet AGL
Clouds: broken clouds at 3000 feet AGL
broken clouds at 10000 feet AGL
Weather: no significant weather forecast for this period
Text: TEMPO 1918/2003 21008MPS 3100 -SHRA BR BKN011 OVC020CB
Forecast period: 1800 UTC 19 April 2019 to 0300 UTC 20 April 2019
Forecast type: TEMPORARY: The following changes expected for less than half the time period
Winds: from the SSW (210 degrees) at 18 MPH (16 knots; 8.2 m/s)
Visibility: 1.93 miles (3.11 km)
Ceiling: 1100 feet AGL
Clouds: broken clouds at 1100 feet AGL
overcast cloud deck at 2000 feet AGL
Weather: -SHRA BR  (light rain showers, mist)
Text: BECMG 2006/2007 4000 -SHRA BR BKN011 OVC020CB
Forecast period: 0600 to 1800 UTC 20 April 2019
Forecast type: BECOMING: Conditions expected to become as follows by 0700 UTC 20 April 2019
Winds: from the W (280 degrees) at 9 MPH (8 knots; 4.1 m/s)
Visibility: 2.49 miles (4.01 km)
Ceiling: 1100 feet AGL
Clouds: broken clouds at 1100 feet AGL
overcast cloud deck at 2000 feet AGL
Weather: -SHRA BR  (light rain showers, mist)
Text: TEMPO 2006/2015 24007G12MPS 2000 TSRA BR BKN008 OVC015CB
Forecast period: 0600 to 1500 UTC 20 April 2019
Forecast type: TEMPORARY: The following changes expected for less than half the time period
Winds: from the WSW (240 degrees) at 16 MPH (14 knots; 7.2 m/s)
gusting to 26 MPH (23 knots; 11.8 m/s)
Visibility: 1.24 miles (2.00 km)
Ceiling: 800 feet AGL
Clouds: broken clouds at 800 feet AGL
overcast cloud deck at 1500 feet AGL
Weather: TSRA BR  (rain associated with thunderstorm(s), mist)